Time;durP1;ratioP1;P1;durP2;ratioP2;P2;SDS_P1;SDS_P2;PMS_P1;PMS_P2;Temp;Humidity;BMP_temperature;BMP_pressure;BME280_temperature;BME280_humidity;BME280_pressure;Samples;Min_cycle;Max_cycle;Signal;HPM_P1;HPM_P2
2023/09/05 00:01:10;;;;;;;5.83;4.70;;;;;;;;;;5017402;28;20182;-84
2023/09/05 00:03:36;;;;;;;6.77;4.93;;;;;;;;;;5002503;28;20342;-84
2023/09/05 00:06:10;;;;;;;8.27;4.77;;;;;;;;;;5017821;28;20188;-84
2023/09/05 00:08:37;;;;;;;6.37;4.60;;;;;;;;;;5025128;28;20187;-84
2023/09/05 00:11:03;;;;;;;6.60;4.53;;;;;;;;;;5018674;28;20189;-84
2023/09/05 00:13:29;;;;;;;5.40;4.60;;;;;;;;;;5018267;28;20185;-84
2023/09/05 00:15:57;;;;;;;4.50;4.10;;;;;;;;;;5011211;28;20184;-84
2023/09/05 00:18:23;;;;;;;5.73;4.77;;;;;;;;;;5033996;28;20207;-84
2023/09/05 00:20:55;;;;;;;7.83;4.80;;;;;;;;;;5009649;28;20193;-84
2023/09/05 00:23:22;;;;;;;6.60;4.50;;;;;;;;;;5018411;28;20185;-84
2023/09/05 00:25:48;;;;;;;5.27;4.77;;;;;;;;;;5035331;28;20208;-84
2023/09/05 00:28:14;;;;;;;7.07;4.73;;;;;;;;;;5033278;28;20177;-84
2023/09/05 00:30:40;;;;;;;4.90;4.50;;;;;;;;;;5018721;28;20219;-84
2023/09/05 00:33:06;;;;;;;6.97;4.90;;;;;;;;;;5033349;28;20188;-84
2023/09/05 00:35:32;;;;;;;6.57;4.90;;;;;;;;;;5018047;28;20188;-84
2023/09/05 00:37:58;;;;;;;6.57;4.90;;;;;;;;;;5033642;28;20185;-84
2023/09/05 00:40:26;;;;;;;5.10;4.60;;;;;;;;;;5017404;28;20193;-84
2023/09/05 00:42:52;;;;;;;8.13;4.77;;;;;;;;;;5034705;28;20243;-84
2023/09/05 00:45:19;;;;;;;5.73;4.70;;;;;;;;;;5018114;28;20219;-84
2023/09/05 00:47:47;;;;;;;5.20;4.70;;;;;;;;;;5018421;28;20191;-84
2023/09/05 00:50:18;;;;;;;7.30;4.30;;;;;;;;;;5017246;28;20212;-84
2023/09/05 00:52:44;;;;;;;5.43;4.53;;;;;;;;;;5012585;28;20281;-84
2023/09/05 00:55:11;;;;;;;5.33;4.60;;;;;;;;;;5029090;28;20191;-84
2023/09/05 00:57:38;;;;;;;4.97;4.47;;;;;;;;;;5033104;28;20207;-84
2023/09/05 01:00:11;;;;;;;5.53;4.63;;;;;;;;;;5017275;28;20236;-84
2023/09/05 01:02:38;;;;;;;6.00;4.43;;;;;;;;;;5014464;28;20199;-84
2023/09/05 01:05:05;;;;;;;5.43;4.73;;;;;;;;;;5016010;28;20243;-83
2023/09/05 01:07:45;;;;;;;10.20;4.90;;;;;;;;;;5012864;28;20292;-84
2023/09/05 01:10:14;;;;;;;6.10;5.10;;;;;;;;;;5019155;28;20208;-84
2023/09/05 01:12:40;;;;;;;6.80;5.00;;;;;;;;;;5025791;28;20192;-84
2023/09/05 01:15:08;;;;;;;5.20;4.70;;;;;;;;;;5017413;28;20223;-84
2023/09/05 01:17:34;;;;;;;4.93;4.53;;;;;;;;;;5017551;28;20176;-84
2023/09/05 01:20:01;;;;;;;5.67;5.03;;;;;;;;;;4997763;28;20281;-84
2023/09/05 01:22:35;;;;;;;6.67;4.93;;;;;;;;;;5022233;28;20212;-84
2023/09/05 01:25:02;;;;;;;5.27;4.73;;;;;;;;;;5026657;28;20250;-84
2023/09/05 01:27:29;;;;;;;6.10;4.90;;;;;;;;;;5000756;28;20185;-84
2023/09/05 01:29:55;;;;;;;8.43;4.93;;;;;;;;;;4994453;28;20244;-84
2023/09/05 01:32:21;;;;;;;6.37;5.10;;;;;;;;;;5023909;28;20181;-83
2023/09/05 01:34:47;;;;;;;6.67;5.00;;;;;;;;;;4992460;28;20181;-84
2023/09/05 01:37:15;;;;;;;6.63;4.70;;;;;;;;;;5012674;28;20283;-84
2023/09/05 01:39:41;;;;;;;5.37;4.87;;;;;;;;;;5023019;28;20184;-84
2023/09/05 01:42:07;;;;;;;6.83;5.10;;;;;;;;;;5000358;28;20268;-84
2023/09/05 01:44:38;;;;;;;5.40;4.90;;;;;;;;;;5021850;28;20177;-83
2023/09/05 01:47:04;;;;;;;6.70;4.93;;;;;;;;;;5001006;28;20269;-83
2023/09/05 01:49:30;;;;;;;7.13;4.83;;;;;;;;;;5007880;28;20197;-84
2023/09/05 01:51:56;;;;;;;5.90;5.30;;;;;;;;;;4998290;28;20196;-84
2023/09/05 01:54:24;;;;;;;6.93;5.23;;;;;;;;;;4989116;28;20258;-84
2023/09/05 01:56:50;;;;;;;6.10;5.30;;;;;;;;;;5007131;28;20185;-84
2023/09/05 01:59:19;;;;;;;8.20;5.53;;;;;;;;;;4991630;28;20192;-84
2023/09/05 02:01:45;;;;;;;6.03;5.37;;;;;;;;;;5010212;28;20181;-84
2023/09/05 02:04:11;;;;;;;7.67;5.90;;;;;;;;;;5004105;28;20185;-84
2023/09/05 02:06:37;;;;;;;6.03;5.43;;;;;;;;;;5008345;28;20181;-84
2023/09/05 02:09:03;;;;;;;6.10;5.50;;;;;;;;;;4994043;28;20205;-84
2023/09/05 02:11:29;;;;;;;6.77;5.40;;;;;;;;;;5008029;28;20186;-84
2023/09/05 02:13:55;;;;;;;8.00;5.63;;;;;;;;;;4996208;28;20182;-84
2023/09/05 02:16:23;;;;;;;6.53;5.50;;;;;;;;;;5012966;28;20181;-84
2023/09/05 02:18:49;;;;;;;7.63;5.40;;;;;;;;;;5013746;28;20269;-84
2023/09/05 02:21:16;;;;;;;5.23;4.73;;;;;;;;;;5011696;28;20182;-85
2023/09/05 02:23:42;;;;;;;7.03;5.10;;;;;;;;;;5012005;28;20247;-85
2023/09/05 02:26:09;;;;;;;6.13;5.30;;;;;;;;;;5012649;28;20185;-84
2023/09/05 02:28:37;;;;;;;7.20;5.17;;;;;;;;;;5013453;28;20194;-85
2023/09/05 02:31:06;;;;;;;6.70;5.00;;;;;;;;;;5012828;28;20185;-85
2023/09/05 02:33:34;;;;;;;6.70;5.37;;;;;;;;;;5012398;28;20188;-85
2023/09/05 02:36:10;;;;;;;6.20;5.00;;;;;;;;;;5012479;28;20204;-85
2023/09/05 02:38:37;;;;;;;6.10;5.50;;;;;;;;;;5013073;28;20186;-85
2023/09/05 02:41:03;;;;;;;5.57;5.07;;;;;;;;;;5012319;28;20213;-84
2023/09/05 02:43:29;;;;;;;6.93;5.47;;;;;;;;;;5012845;28;20193;-85
2023/09/05 02:45:58;;;;;;;5.87;5.37;;;;;;;;;;4995194;28;20193;-84
2023/09/05 02:48:24;;;;;;;7.30;5.20;;;;;;;;;;5012553;28;20188;-85
2023/09/05 02:50:59;;;;;;;7.03;5.50;;;;;;;;;;5012035;28;20213;-84
2023/09/05 02:53:25;;;;;;;7.30;5.23;;;;;;;;;;5012629;28;20232;-84
2023/09/05 02:55:51;;;;;;;6.70;5.90;;;;;;;;;;4995499;28;20196;-84
2023/09/05 02:58:19;;;;;;;7.37;5.90;;;;;;;;;;5011197;28;20195;-84
2023/09/05 03:00:49;;;;;;;7.53;5.50;;;;;;;;;;5012688;28;20236;-84
2023/09/05 03:03:16;;;;;;;7.70;6.00;;;;;;;;;;5015130;28;20191;-84
2023/09/05 03:05:43;;;;;;;8.30;6.10;;;;;;;;;;5016815;28;20228;-85
2023/09/05 03:08:09;;;;;;;6.30;5.70;;;;;;;;;;4996859;28;20197;-85
2023/09/05 03:10:35;;;;;;;6.67;5.90;;;;;;;;;;4997046;28;20223;-84
2023/09/05 03:13:01;;;;;;;6.93;6.23;;;;;;;;;;5000438;28;20188;-85
2023/09/05 03:15:27;;;;;;;6.53;5.83;;;;;;;;;;4998550;28;20181;-84
2023/09/05 03:17:53;;;;;;;6.90;5.93;;;;;;;;;;4999002;28;20238;-84
2023/09/05 03:20:19;;;;;;;7.17;6.47;;;;;;;;;;5015201;28;20201;-84
2023/09/05 03:22:45;;;;;;;8.33;6.63;;;;;;;;;;5015892;28;20193;-84
2023/09/05 03:25:11;;;;;;;8.57;6.30;;;;;;;;;;5015572;28;20196;-84
2023/09/05 03:27:37;;;;;;;9.23;6.20;;;;;;;;;;5016018;28;20181;-85
2023/09/05 03:30:03;;;;;;;7.53;6.17;;;;;;;;;;5016031;28;20244;-84
2023/09/05 03:32:29;;;;;;;7.67;6.87;;;;;;;;;;5014991;28;20197;-84
2023/09/05 03:34:55;;;;;;;7.23;6.57;;;;;;;;;;4999374;28;20189;-84
2023/09/05 03:37:21;;;;;;;6.80;6.20;;;;;;;;;;4999650;28;20181;-84
2023/09/05 03:39:49;;;;;;;7.23;6.53;;;;;;;;;;5015268;28;20188;-84
2023/09/05 03:42:15;;;;;;;7.03;6.40;;;;;;;;;;5016526;28;20181;-84
2023/09/05 03:44:41;;;;;;;9.53;6.57;;;;;;;;;;5015788;28;20252;-84
2023/09/05 03:47:09;;;;;;;7.20;6.60;;;;;;;;;;5015539;28;20193;-84
2023/09/05 03:49:36;;;;;;;8.00;6.77;;;;;;;;;;5014672;28;20228;-84
2023/09/05 03:52:04;;;;;;;7.97;6.47;;;;;;;;;;4999601;28;20416;-84
2023/09/05 03:54:31;;;;;;;7.30;6.60;;;;;;;;;;5000268;28;20244;-84
2023/09/05 03:56:57;;;;;;;7.70;6.87;;;;;;;;;;4999274;28;20199;-84
2023/09/05 03:59:26;;;;;;;7.83;7.03;;;;;;;;;;4998236;28;20186;-84
2023/09/05 04:01:52;;;;;;;10.70;7.10;;;;;;;;;;5015688;28;20181;-85
2023/09/05 04:04:18;;;;;;;7.87;6.83;;;;;;;;;;5014347;28;20193;-84
2023/09/05 04:06:44;;;;;;;7.80;6.87;;;;;;;;;;5015542;28;20190;-84
2023/09/05 04:09:12;;;;;;;9.33;7.37;;;;;;;;;;5004216;28;20233;-84
2023/09/05 04:11:38;;;;;;;7.70;6.90;;;;;;;;;;5009837;28;20187;-84
2023/09/05 04:14:04;;;;;;;7.53;6.73;;;;;;;;;;5014091;28;20217;-84
2023/09/05 04:16:30;;;;;;;8.00;6.83;;;;;;;;;;5015613;28;20181;-84
2023/09/05 04:18:56;;;;;;;7.97;6.73;;;;;;;;;;4998955;28;20192;-84
2023/09/05 04:21:22;;;;;;;8.13;7.43;;;;;;;;;;4998095;28;20193;-84
2023/09/05 04:23:48;;;;;;;8.07;7.27;;;;;;;;;;5013614;28;20185;-84
2023/09/05 04:26:14;;;;;;;11.53;7.00;;;;;;;;;;5002949;28;20185;-84
2023/09/05 04:28:43;;;;;;;10.47;6.97;;;;;;;;;;4998641;28;20201;-85
2023/09/05 04:31:09;;;;;;;9.20;7.20;;;;;;;;;;5014278;28;20213;-85
2023/09/05 04:33:39;;;;;;;7.83;7.03;;;;;;;;;;4998996;28;20238;-84
2023/09/05 04:36:09;;;;;;;8.90;6.97;;;;;;;;;;4996832;28;20196;-84
2023/09/05 04:38:35;;;;;;;7.67;6.83;;;;;;;;;;5012963;28;20181;-84
2023/09/05 04:41:05;;;;;;;8.70;7.40;;;;;;;;;;5014123;28;20209;-84
2023/09/05 04:43:31;;;;;;;7.97;7.17;;;;;;;;;;5011501;28;20277;-84
2023/09/05 04:45:58;;;;;;;8.23;7.20;;;;;;;;;;5014309;28;20216;-84
2023/09/05 04:48:24;;;;;;;8.20;7.37;;;;;;;;;;5013910;28;20192;-84
2023/09/05 04:50:51;;;;;;;9.97;7.10;;;;;;;;;;5010622;28;20212;-85
2023/09/05 04:53:17;;;;;;;8.63;7.83;;;;;;;;;;5014763;28;20267;-84
2023/09/05 04:55:43;;;;;;;8.33;7.30;;;;;;;;;;5001172;28;20213;-84
2023/09/05 04:58:11;;;;;;;8.07;7.27;;;;;;;;;;4995603;28;20200;-84
2023/09/05 05:00:37;;;;;;;8.07;7.37;;;;;;;;;;5010156;28;20189;-84
2023/09/05 05:03:04;;;;;;;8.20;7.40;;;;;;;;;;4988459;28;20244;-84
2023/09/05 05:05:30;;;;;;;8.00;7.20;;;;;;;;;;5015050;28;20194;-84
2023/09/05 05:07:56;;;;;;;8.30;7.50;;;;;;;;;;5014672;28;20228;-84
2023/09/05 05:10:22;;;;;;;10.20;7.83;;;;;;;;;;4998360;28;20213;-85
2023/09/05 05:12:48;;;;;;;8.13;7.50;;;;;;;;;;4994944;28;20189;-84
2023/09/05 05:15:14;;;;;;;10.10;7.00;;;;;;;;;;4998438;28;20182;-84
2023/09/05 05:17:40;;;;;;;7.80;7.00;;;;;;;;;;4998488;28;20185;-84
2023/09/05 05:20:07;;;;;;;8.43;7.63;;;;;;;;;;4998559;28;20185;-84
2023/09/05 05:22:34;;;;;;;8.60;7.70;;;;;;;;;;4994696;28;20193;-84
2023/09/05 05:25:00;;;;;;;8.63;6.97;;;;;;;;;;4995578;28;20277;-83
2023/09/05 05:27:26;;;;;;;8.30;7.40;;;;;;;;;;5013813;28;20288;-85
2023/09/05 05:29:53;;;;;;;9.10;7.60;;;;;;;;;;5014128;28;20212;-85
2023/09/05 05:32:19;;;;;;;8.27;7.47;;;;;;;;;;5014376;28;20231;-84
2023/09/05 05:34:48;;;;;;;8.70;7.77;;;;;;;;;;5014207;28;20181;-84
2023/09/05 05:37:16;;;;;;;8.10;7.20;;;;;;;;;;5013650;28;20320;-85
2023/09/05 05:39:42;;;;;;;8.30;7.30;;;;;;;;;;4997719;28;20193;-84
2023/09/05 05:42:08;;;;;;;8.90;7.07;;;;;;;;;;4997651;28;20181;-84
2023/09/05 05:44:36;;;;;;;8.80;6.90;;;;;;;;;;4997724;28;20181;-84
2023/09/05 05:47:03;;;;;;;7.57;6.77;;;;;;;;;;4996401;28;20213;-84
2023/09/05 05:49:29;;;;;;;7.53;6.77;;;;;;;;;;4997936;28;20221;-85
2023/09/05 05:51:59;;;;;;;7.67;6.30;;;;;;;;;;4995202;28;20213;-84
2023/09/05 05:54:25;;;;;;;6.93;6.30;;;;;;;;;;5012917;28;20319;-84
2023/09/05 05:56:55;;;;;;;6.80;6.10;;;;;;;;;;5031507;28;20275;-85
2023/09/05 05:59:21;;;;;;;7.10;5.87;;;;;;;;;;5013704;28;20187;-85
2023/09/05 06:01:47;;;;;;;7.47;6.03;;;;;;;;;;5016076;28;20181;-85
2023/09/05 06:04:15;;;;;;;7.30;6.17;;;;;;;;;;5015480;28;20267;-85
2023/09/05 06:06:42;;;;;;;6.43;5.83;;;;;;;;;;5009283;28;20196;-85
2023/09/05 06:09:09;;;;;;;6.40;5.67;;;;;;;;;;5024757;28;20240;-85
2023/09/05 06:11:35;;;;;;;7.93;5.80;;;;;;;;;;4995317;28;20192;-85
2023/09/05 06:14:01;;;;;;;8.37;6.00;;;;;;;;;;5026340;28;20193;-85
2023/09/05 06:16:28;;;;;;;8.30;5.43;;;;;;;;;;4993772;28;20189;-85
2023/09/05 06:18:54;;;;;;;6.57;5.90;;;;;;;;;;5010535;28;20180;-85
2023/09/05 06:21:20;;;;;;;6.07;5.53;;;;;;;;;;4996436;28;20242;-85
2023/09/05 06:23:46;;;;;;;6.67;6.03;;;;;;;;;;4994539;28;20192;-85
2023/09/05 06:26:12;;;;;;;7.33;5.73;;;;;;;;;;4995383;28;20185;-85
2023/09/05 06:28:38;;;;;;;6.03;5.50;;;;;;;;;;4994146;28;20186;-85
2023/09/05 06:31:05;;;;;;;6.60;6.00;;;;;;;;;;4992065;28;20303;-85
2023/09/05 06:33:31;;;;;;;6.17;5.57;;;;;;;;;;5027770;28;20188;-84
2023/09/05 06:35:57;;;;;;;5.80;5.30;;;;;;;;;;5000517;28;20259;-85
2023/09/05 06:38:23;;;;;;;6.37;5.77;;;;;;;;;;4992801;28;20216;-85
2023/09/05 06:40:50;;;;;;;6.27;5.53;;;;;;;;;;5022959;28;20206;-85
2023/09/05 06:43:16;;;;;;;7.27;5.83;;;;;;;;;;5022037;28;20212;-85
2023/09/05 06:45:44;;;;;;;5.77;5.27;;;;;;;;;;4992088;28;20192;-85
2023/09/05 06:48:10;;;;;;;8.43;5.40;;;;;;;;;;5013307;28;20193;-85
2023/09/05 06:50:36;;;;;;;5.87;5.20;;;;;;;;;;4999423;28;20220;-85
2023/09/05 06:53:03;;;;;;;6.30;5.67;;;;;;;;;;5026255;28;20243;-85
2023/09/05 06:55:31;;;;;;;6.63;5.33;;;;;;;;;;4999799;28;20183;-85
2023/09/05 06:57:57;;;;;;;6.97;5.60;;;;;;;;;;5000381;28;20246;-85
2023/09/05 07:00:27;;;;;;;5.97;5.10;;;;;;;;;;5016266;28;20189;-84
2023/09/05 07:02:54;;;;;;;8.60;5.73;;;;;;;;;;4980913;28;20187;-85
2023/09/05 07:05:20;;;;;;;6.53;5.37;;;;;;;;;;5012588;28;20189;-85
2023/09/05 07:07:46;;;;;;;7.20;4.90;;;;;;;;;;5013448;28;20380;-83
2023/09/05 07:10:13;;;;;;;8.10;5.57;;;;;;;;;;4998531;28;20270;-84
2023/09/05 07:12:39;;;;;;;9.07;5.13;;;;;;;;;;5010471;28;20278;-83
2023/09/05 07:15:05;;;;;;;6.40;5.10;;;;;;;;;;5012473;28;20209;-84
2023/09/05 07:17:31;;;;;;;6.27;5.10;;;;;;;;;;4995609;28;20283;-84
2023/09/05 07:19:57;;;;;;;6.80;5.53;;;;;;;;;;4999123;28;20193;-84
2023/09/05 07:22:23;;;;;;;6.20;5.60;;;;;;;;;;5021723;28;20238;-84
2023/09/05 07:24:49;;;;;;;9.87;5.33;;;;;;;;;;5032469;28;20176;-85
2023/09/05 07:27:16;;;;;;;6.97;5.97;;;;;;;;;;4994367;28;20197;-85
2023/09/05 07:29:45;;;;;;;7.57;5.50;;;;;;;;;;5025725;28;20204;-85
2023/09/05 07:32:11;;;;;;;6.63;5.43;;;;;;;;;;4997798;28;20188;-85
2023/09/05 07:34:37;;;;;;;6.70;5.30;;;;;;;;;;5009412;28;20185;-85
2023/09/05 07:37:03;;;;;;;5.90;5.13;;;;;;;;;;5004849;28;20230;-85
2023/09/05 07:39:29;;;;;;;9.70;5.23;;;;;;;;;;4999985;28;20279;-84
2023/09/05 07:41:55;;;;;;;5.93;4.93;;;;;;;;;;4997795;28;20189;-84
2023/09/05 07:44:21;;;;;;;6.10;4.57;;;;;;;;;;4993606;28;20190;-84
2023/09/05 07:46:47;;;;;;;5.83;5.23;;;;;;;;;;4998167;28;20223;-81
2023/09/05 07:49:15;;;;;;;8.03;5.13;;;;;;;;;;5016665;28;20220;-82
2023/09/05 07:51:42;;;;;;;5.07;4.67;;;;;;;;;;5022672;28;20223;-82
2023/09/05 07:54:10;;;;;;;7.17;5.20;;;;;;;;;;4993931;28;20374;-82
2023/09/05 07:56:37;;;;;;;5.53;4.43;;;;;;;;;;5018876;28;20185;-81
2023/09/05 07:59:03;;;;;;;5.80;4.80;;;;;;;;;;5015592;28;20189;-81
2023/09/05 08:01:29;;;;;;;5.27;4.77;;;;;;;;;;5025442;28;20248;-80
2023/09/05 08:03:55;;;;;;;8.07;4.53;;;;;;;;;;5018498;28;20269;-80
2023/09/05 08:06:21;;;;;;;6.23;4.00;;;;;;;;;;5001353;28;20188;-80
2023/09/05 08:08:47;;;;;;;4.90;4.40;;;;;;;;;;5001487;28;20197;-80
2023/09/05 08:11:13;;;;;;;5.57;4.23;;;;;;;;;;5018220;28;20220;-81
2023/09/05 08:13:39;;;;;;;4.53;4.10;;;;;;;;;;5018007;28;20192;-81
2023/09/05 08:16:06;;;;;;;5.00;3.53;;;;;;;;;;5015228;28;20186;-80
2023/09/05 08:18:32;;;;;;;4.10;3.50;;;;;;;;;;4999835;28;20188;-81
2023/09/05 08:20:59;;;;;;;3.47;3.00;;;;;;;;;;5017608;28;20192;-81
2023/09/05 08:23:25;;;;;;;3.57;2.83;;;;;;;;;;5002447;28;20271;-81
2023/09/05 08:25:56;;;;;;;4.43;3.13;;;;;;;;;;5016181;28;20181;-81
2023/09/05 08:28:22;;;;;;;4.63;3.63;;;;;;;;;;5017534;28;20425;-81
2023/09/05 08:30:48;;;;;;;5.13;3.07;;;;;;;;;;5014562;28;20208;-81
2023/09/05 08:33:14;;;;;;;4.82;3.13;;;;;;;;;;5030795;28;20494;-81
2023/09/05 08:35:41;;;;;;;4.45;3.10;;;;;;;;;;5017802;28;20444;-81
2023/09/05 08:38:07;;;;;;;5.20;3.33;;;;;;;;;;5034037;28;20404;-81
2023/09/05 08:40:34;;;;;;;4.82;3.30;;;;;;;;;;5002267;28;20176;-81
2023/09/05 08:43:00;;;;;;;4.75;3.08;;;;;;;;;;5017751;28;20488;-81
2023/09/05 08:45:26;;;;;;;5.97;3.10;;;;;;;;;;5000799;28;20516;-81
2023/09/05 08:47:53;;;;;;;4.30;3.00;;;;;;;;;;5034894;28;20180;-81
2023/09/05 08:50:19;;;;;;;2.90;2.50;;;;;;;;;;5001227;28;20294;-81
2023/09/05 08:52:46;;;;;;;4.00;2.90;;;;;;;;;;5017317;28;20205;-81
2023/09/05 08:55:13;;;;;;;5.50;3.15;;;;;;;;;;5014864;28;20446;-81
2023/09/05 08:57:39;;;;;;;7.97;3.40;;;;;;;;;;5002124;28;20422;-81
2023/09/05 09:00:08;;;;;;;5.03;3.10;;;;;;;;;;5005766;28;20431;-81
2023/09/05 09:02:38;;;;;;;4.57;3.17;;;;;;;;;;4987689;28;20439;-81
2023/09/05 09:05:04;;;;;;;5.45;3.00;;;;;;;;;;5020287;28;20453;-81
2023/09/05 09:07:31;;;;;;;4.55;2.95;;;;;;;;;;5031341;28;20444;-81
2023/09/05 09:09:57;;;;;;;6.93;3.13;;;;;;;;;;5012940;28;20524;-81
2023/09/05 09:12:31;;;;;;;4.88;2.95;;;;;;;;;;5016701;28;20397;-81
2023/09/05 09:15:10;;;;;;;4.82;3.00;;;;;;;;;;5015942;28;20409;-81
2023/09/05 09:17:36;;;;;;;5.38;2.90;;;;;;;;;;5013213;28;20401;-81
2023/09/05 09:20:05;;;;;;;5.80;3.00;;;;;;;;;;4998934;28;20436;-81
2023/09/05 09:22:32;;;;;;;5.60;3.15;;;;;;;;;;5010832;28;20429;-81
2023/09/05 09:24:58;;;;;;;3.45;2.90;;;;;;;;;;5022126;28;20425;-81
2023/09/05 09:27:24;;;;;;;5.43;2.92;;;;;;;;;;4999357;28;20417;-81
2023/09/05 09:29:54;;;;;;;3.80;2.80;;;;;;;;;;5003666;28;20438;-81
2023/09/05 09:32:22;;;;;;;4.85;2.90;;;;;;;;;;5034611;28;20481;-81
2023/09/05 09:34:48;;;;;;;5.15;3.28;;;;;;;;;;5023871;28;20417;-81
2023/09/05 09:37:23;;;;;;;4.50;2.95;;;;;;;;;;5018182;28;20188;-81
2023/09/05 09:39:49;;;;;;;5.47;3.10;;;;;;;;;;5013374;28;20411;-82
2023/09/05 09:42:23;;;;;;;6.57;3.22;;;;;;;;;;5015760;28;20425;-81
2023/09/05 09:44:50;;;;;;;3.88;2.78;;;;;;;;;;5017220;28;20169;-81
2023/09/05 09:47:17;;;;;;;5.43;3.00;;;;;;;;;;5013547;28;20409;-81
2023/09/05 09:49:46;;;;;;;7.35;3.25;;;;;;;;;;5000643;28;20437;-81
2023/09/05 09:52:14;;;;;;;4.63;3.17;;;;;;;;;;5016412;28;20492;-81
2023/09/05 09:54:40;;;;;;;4.85;3.05;;;;;;;;;;5013769;28;20449;-81
2023/09/05 09:57:09;;;;;;;4.80;2.80;;;;;;;;;;5016055;28;20479;-81
2023/09/05 09:59:38;;;;;;;4.88;2.80;;;;;;;;;;5013663;28;20423;-81
2023/09/05 10:02:05;;;;;;;5.85;3.20;;;;;;;;;;5032526;28;20410;-81
2023/09/05 10:04:31;;;;;;;6.70;3.15;;;;;;;;;;5028791;28;20419;-81
2023/09/05 10:06:58;;;;;;;4.88;2.85;;;;;;;;;;5017086;28;20413;-82
2023/09/05 10:09:30;;;;;;;6.00;3.10;;;;;;;;;;5022180;28;20456;-82
2023/09/05 10:11:58;;;;;;;7.22;3.00;;;;;;;;;;5011932;28;20471;-81
2023/09/05 10:14:27;;;;;;;4.97;2.90;;;;;;;;;;5011067;28;20421;-82
2023/09/05 10:16:54;;;;;;;5.82;2.85;;;;;;;;;;5015521;28;20452;-82
2023/09/05 10:19:21;;;;;;;5.63;2.70;;;;;;;;;;5001035;28;20417;-82
2023/09/05 10:21:48;;;;;;;4.70;2.58;;;;;;;;;;5017947;28;20417;-82
2023/09/05 10:24:15;;;;;;;5.60;2.75;;;;;;;;;;5009978;28;20447;-82
2023/09/05 10:26:42;;;;;;;4.97;2.70;;;;;;;;;;5015459;28;20413;-82
2023/09/05 10:29:28;;;;;;;4.50;2.80;;;;;;;;;;5029215;28;20498;-82
2023/09/05 10:31:54;;;;;;;3.33;2.60;;;;;;;;;;5009500;28;20441;-82
2023/09/05 10:34:20;;;;;;;3.15;2.63;;;;;;;;;;5024366;28;20445;-82
2023/09/05 10:36:46;;;;;;;3.95;2.53;;;;;;;;;;5026415;28;20423;-82
2023/09/05 10:39:22;;;;;;;4.13;2.63;;;;;;;;;;5003958;28;20471;-82
2023/09/05 10:41:48;;;;;;;3.75;2.40;;;;;;;;;;5018330;28;20417;-82
2023/09/05 10:44:18;;;;;;;4.70;2.47;;;;;;;;;;5031186;28;20418;-82
2023/09/05 10:46:44;;;;;;;3.85;2.30;;;;;;;;;;5032146;28;20413;-82
2023/09/05 10:49:11;;;;;;;4.10;2.20;;;;;;;;;;5015514;28;20405;-82
2023/09/05 10:51:37;;;;;;;3.00;2.47;;;;;;;;;;5024106;28;20423;-81
2023/09/05 10:54:21;;;;;;;4.78;2.70;;;;;;;;;;5009066;28;20447;-81
2023/09/05 10:56:49;;;;;;;4.53;2.30;;;;;;;;;;4992683;28;20422;-82
2023/09/05 10:59:29;;;;;;;4.22;2.30;;;;;;;;;;4991540;28;20442;-82
2023/09/05 11:02:00;;;;;;;3.85;2.30;;;;;;;;;;5011970;28;20414;-82
2023/09/05 11:04:29;;;;;;;2.85;2.17;;;;;;;;;;4991486;28;20439;-81
2023/09/05 11:06:57;;;;;;;2.53;2.25;;;;;;;;;;4997578;28;20502;-82
2023/09/05 11:09:24;;;;;;;3.70;2.20;;;;;;;;;;5012603;28;20439;-81
2023/09/05 11:11:51;;;;;;;2.97;2.03;;;;;;;;;;4995568;28;20429;-81
2023/09/05 11:14:28;;;;;;;4.10;2.33;;;;;;;;;;5009900;28;20462;-81
2023/09/05 11:16:57;;;;;;;3.17;1.90;;;;;;;;;;5012072;28;20426;-82
2023/09/05 11:19:41;;;;;;;2.40;1.98;;;;;;;;;;5001641;28;20182;-82
2023/09/05 11:22:11;;;;;;;3.60;2.20;;;;;;;;;;5002478;28;20430;-83
2023/09/05 11:24:49;;;;;;;3.03;2.00;;;;;;;;;;5014800;28;20418;-82
2023/09/05 11:27:16;;;;;;;4.95;2.10;;;;;;;;;;5016134;28;20415;-82
2023/09/05 11:29:45;;;;;;;3.88;2.08;;;;;;;;;;5015670;28;20510;-82
2023/09/05 11:32:13;;;;;;;2.55;2.10;;;;;;;;;;5014812;28;20423;-83
2023/09/05 11:34:48;;;;;;;3.17;2.20;;;;;;;;;;5014026;28;20423;-82
2023/09/05 11:37:18;;;;;;;3.30;2.00;;;;;;;;;;5016223;28;20449;-82
2023/09/05 11:39:45;;;;;;;3.25;2.13;;;;;;;;;;5014228;28;20431;-82
2023/09/05 11:42:22;;;;;;;2.77;2.00;;;;;;;;;;5006870;28;20467;-82
2023/09/05 11:44:53;;;;;;;6.47;2.40;;;;;;;;;;4996260;28;20486;-83
2023/09/05 11:47:22;;;;;;;2.33;2.08;;;;;;;;;;4985047;28;20217;-82
2023/09/05 11:49:48;;;;;;;3.58;2.10;;;;;;;;;;5016552;28;20236;-82
2023/09/05 11:52:16;;;;;;;3.38;2.10;;;;;;;;;;5016017;28;20415;-83
2023/09/05 11:54:43;;;;;;;2.20;2.00;;;;;;;;;;5016326;28;20517;-82
2023/09/05 11:57:09;;;;;;;3.17;2.10;;;;;;;;;;5016021;28;20189;-83
2023/09/05 11:59:36;;;;;;;4.03;1.98;;;;;;;;;;5016485;28;20181;-82
2023/09/05 12:02:15;;;;;;;2.20;1.98;;;;;;;;;;5016262;28;20180;-82
2023/09/05 12:04:43;;;;;;;2.13;1.90;;;;;;;;;;5016105;28;20181;-82
2023/09/05 12:07:10;;;;;;;4.88;2.10;;;;;;;;;;5014925;28;20513;-82
2023/09/05 12:09:36;;;;;;;5.13;2.15;;;;;;;;;;5016254;28;20205;-82
2023/09/05 12:12:09;;;;;;;2.20;1.80;;;;;;;;;;4999926;28;20180;-82
2023/09/05 12:14:49;;;;;;;3.83;2.10;;;;;;;;;;5015270;28;20426;-82
2023/09/05 12:17:17;;;;;;;3.47;2.10;;;;;;;;;;5015015;28;20461;-82
2023/09/05 12:19:45;;;;;;;2.20;2.00;;;;;;;;;;5015308;28;20185;-82
2023/09/05 12:22:22;;;;;;;4.00;2.17;;;;;;;;;;5015164;28;20423;-82
2023/09/05 12:24:48;;;;;;;3.08;2.28;;;;;;;;;;5015980;28;20429;-82
2023/09/05 12:27:26;;;;;;;3.70;2.07;;;;;;;;;;5015049;28;20446;-82
2023/09/05 12:29:55;;;;;;;3.40;2.20;;;;;;;;;;5015231;28;20431;-82
2023/09/05 12:32:26;;;;;;;4.05;2.10;;;;;;;;;;5016226;28;20509;-82
2023/09/05 12:34:52;;;;;;;4.05;2.10;;;;;;;;;;5035191;28;20417;-82
2023/09/05 12:37:18;;;;;;;3.42;2.10;;;;;;;;;;5035325;28;20408;-82
2023/09/05 12:39:44;;;;;;;2.60;1.90;;;;;;;;;;5036448;28;20258;-82
2023/09/05 12:42:11;;;;;;;3.53;1.90;;;;;;;;;;5035314;28;20409;-82
2023/09/05 12:44:37;;;;;;;3.50;2.03;;;;;;;;;;5035602;28;20681;-82
2023/09/05 12:47:03;;;;;;;3.45;1.90;;;;;;;;;;5011488;28;20181;-82
2023/09/05 12:49:30;;;;;;;4.25;2.22;;;;;;;;;;5023450;28;20208;-82
2023/09/05 12:51:57;;;;;;;3.45;2.33;;;;;;;;;;5028626;28;20403;-82
2023/09/05 12:54:23;;;;;;;4.22;2.00;;;;;;;;;;4998537;28;20435;-82
2023/09/05 12:56:49;;;;;;;3.85;2.00;;;;;;;;;;5016753;28;20463;-82
2023/09/05 12:59:17;;;;;;;3.42;1.83;;;;;;;;;;5018367;28;20456;-82
2023/09/05 13:01:45;;;;;;;3.95;2.20;;;;;;;;;;5034616;28;20460;-82
2023/09/05 13:04:11;;;;;;;2.70;2.05;;;;;;;;;;5025970;28;20434;-82
2023/09/05 13:06:40;;;;;;;2.40;2.00;;;;;;;;;;5026142;28;20181;-82
2023/09/05 13:09:06;;;;;;;4.80;2.05;;;;;;;;;;5015657;28;20410;-82
2023/09/05 13:11:32;;;;;;;3.25;2.00;;;;;;;;;;5004699;28;20475;-82
2023/09/05 13:14:01;;;;;;;4.03;2.03;;;;;;;;;;5033844;28;20414;-82
2023/09/05 13:16:27;;;;;;;3.67;1.98;;;;;;;;;;5027948;28;20188;-82
2023/09/05 13:18:53;;;;;;;2.53;2.03;;;;;;;;;;5031933;28;20397;-82
2023/09/05 13:21:19;;;;;;;3.95;2.03;;;;;;;;;;5033365;28;20421;-82
2023/09/05 13:23:45;;;;;;;3.13;2.00;;;;;;;;;;5033954;28;20473;-82
2023/09/05 13:26:11;;;;;;;4.50;2.10;;;;;;;;;;5028369;28;20475;-82
2023/09/05 13:28:37;;;;;;;3.77;2.17;;;;;;;;;;5014102;28;20415;-82
2023/09/05 13:31:03;;;;;;;5.18;2.20;;;;;;;;;;5032396;28;20465;-82
2023/09/05 13:33:29;;;;;;;5.85;2.10;;;;;;;;;;5022594;28;20211;-82
2023/09/05 13:35:55;;;;;;;3.38;2.20;;;;;;;;;;5001750;28;20419;-82
2023/09/05 13:38:21;;;;;;;3.13;2.35;;;;;;;;;;5013695;28;20403;-82
2023/09/05 13:40:48;;;;;;;3.78;2.30;;;;;;;;;;5013393;28;21263;-82
2023/09/05 13:43:14;;;;;;;4.82;2.28;;;;;;;;;;4997575;28;20441;-82
2023/09/05 13:45:40;;;;;;;4.22;2.33;;;;;;;;;;4996903;28;20418;-82
2023/09/05 13:48:07;;;;;;;4.50;2.38;;;;;;;;;;4986664;28;20423;-82
2023/09/05 13:50:33;;;;;;;5.15;2.40;;;;;;;;;;4997628;28;20438;-82
2023/09/05 13:52:59;;;;;;;4.45;2.50;;;;;;;;;;4997640;28;20431;-82
2023/09/05 13:55:27;;;;;;;4.55;2.40;;;;;;;;;;5011950;28;20457;-82
2023/09/05 13:57:54;;;;;;;4.38;2.55;;;;;;;;;;5008828;28;20435;-82
2023/09/05 14:00:20;;;;;;;5.13;2.50;;;;;;;;;;5013474;28;20415;-82
2023/09/05 14:02:47;;;;;;;4.18;2.25;;;;;;;;;;5012994;28;20415;-82
2023/09/05 14:05:14;;;;;;;3.13;2.30;;;;;;;;;;5014275;28;20409;-82
2023/09/05 14:07:40;;;;;;;4.95;2.35;;;;;;;;;;5002949;28;20448;-82
2023/09/05 14:10:13;;;;;;;3.60;2.30;;;;;;;;;;5033103;28;20430;-82
2023/09/05 14:12:39;;;;;;;3.15;2.25;;;;;;;;;;5033767;28;20088;-82
2023/09/05 14:15:06;;;;;;;3.38;2.10;;;;;;;;;;5013999;28;20415;-82
2023/09/05 14:17:32;;;;;;;4.25;2.13;;;;;;;;;;5012259;28;20434;-82
2023/09/05 14:19:58;;;;;;;3.70;2.03;;;;;;;;;;5013349;28;20415;-82
2023/09/05 14:22:25;;;;;;;2.95;1.90;;;;;;;;;;4997596;28;20201;-82
2023/09/05 14:24:51;;;;;;;3.30;2.10;;;;;;;;;;5000301;28;20423;-82
2023/09/05 14:27:17;;;;;;;2.92;2.03;;;;;;;;;;4997323;28;20192;-82
2023/09/05 14:29:43;;;;;;;5.30;1.80;;;;;;;;;;4996780;28;20208;-81
2023/09/05 14:32:09;;;;;;;4.32;2.00;;;;;;;;;;5013064;28;20427;-82
2023/09/05 14:34:35;;;;;;;4.72;1.90;;;;;;;;;;4978377;28;20200;-82
2023/09/05 14:37:03;;;;;;;2.45;1.90;;;;;;;;;;5018547;28;20182;-82
2023/09/05 14:39:30;;;;;;;3.60;2.00;;;;;;;;;;4997586;28;20486;-82
2023/09/05 14:41:56;;;;;;;2.83;1.60;;;;;;;;;;5006721;28;20270;-82
2023/09/05 14:44:22;;;;;;;4.50;1.88;;;;;;;;;;4994802;28;20476;-82